Chibougamau Airport (YMT/CYMT)

Map

Destinations

Information

Location
Chibougamau, Quebec, Canada
Local Time
09:15 / 9:15 am
GMT Time
14:15 / 2:15 pm
Gates
Unassigned
No FAA reported delays
METAR CYMT 221400Z AUTO 06008KT 9SM OVC010 M06/M08 A2996 RMK SLP169
TAF TAF AMD CYMT 221309Z 2213/2301 08010KT P6SM OVC008 TEMPO 2213/2215 SCT008 FM221500 09010G20KT P6SM SCT010 RMK FCST BASED ON AUTO OBS. NXT FCST BY 221800Z
  • No charts available